sensor_id;sensor_type;location;lat;lon;timestamp;P1;durP1;ratioP1;P2;durP2;ratioP2
33006;SDS011;19361;51.598;7.650;2024-03-23T00:53:47;16.95;;;4.80;;
33006;SDS011;19361;51.598;7.650;2024-03-23T00:58:49;15.10;;;4.90;;
33006;SDS011;19361;51.598;7.650;2024-03-23T01:03:50;18.63;;;4.60;;
33006;SDS011;19361;51.598;7.650;2024-03-23T01:08:50;22.45;;;5.05;;
33006;SDS011;19361;51.598;7.650;2024-03-23T01:13:53;17.92;;;4.63;;
33006;SDS011;19361;51.598;7.650;2024-03-23T01:18:56;15.30;;;5.10;;
33006;SDS011;19361;51.598;7.650;2024-03-23T01:23:56;18.05;;;4.80;;
33006;SDS011;19361;51.598;7.650;2024-03-23T01:28:57;16.70;;;4.50;;
33006;SDS011;19361;51.598;7.650;2024-03-23T01:33:58;13.60;;;3.70;;
33006;SDS011;19361;51.598;7.650;2024-03-23T01:38:58;18.30;;;4.85;;
33006;SDS011;19361;51.598;7.650;2024-03-23T01:43:59;16.90;;;4.22;;
33006;SDS011;19361;51.598;7.650;2024-03-23T01:49:07;15.65;;;4.53;;
33006;SDS011;19361;51.598;7.650;2024-03-23T01:54:09;13.27;;;3.90;;
33006;SDS011;19361;51.598;7.650;2024-03-23T01:59:10;13.50;;;3.33;;
33006;SDS011;19361;51.598;7.650;2024-03-23T02:04:11;19.58;;;4.03;;
33006;SDS011;19361;51.598;7.650;2024-03-23T02:09:12;14.10;;;3.13;;
33006;SDS011;19361;51.598;7.650;2024-03-23T02:14:13;10.25;;;3.17;;
33006;SDS011;19361;51.598;7.650;2024-03-23T02:19:14;11.90;;;3.85;;
33006;SDS011;19361;51.598;7.650;2024-03-23T02:24:15;12.10;;;3.90;;
33006;SDS011;19361;51.598;7.650;2024-03-23T02:29:15;11.98;;;3.65;;
33006;SDS011;19361;51.598;7.650;2024-03-23T02:34:16;12.40;;;3.88;;
33006;SDS011;19361;51.598;7.650;2024-03-23T02:39:16;13.00;;;3.55;;
33006;SDS011;19361;51.598;7.650;2024-03-23T02:44:17;11.57;;;2.75;;
33006;SDS011;19361;51.598;7.650;2024-03-23T02:49:18;7.03;;;2.53;;
33006;SDS011;19361;51.598;7.650;2024-03-23T02:54:18;7.47;;;2.38;;
33006;SDS011;19361;51.598;7.650;2024-03-23T02:59:19;9.02;;;2.97;;
33006;SDS011;19361;51.598;7.650;2024-03-23T03:04:20;6.45;;;2.47;;
33006;SDS011;19361;51.598;7.650;2024-03-23T03:09:20;9.27;;;2.42;;
33006;SDS011;19361;51.598;7.650;2024-03-23T03:14:21;12.52;;;2.80;;
33006;SDS011;19361;51.598;7.650;2024-03-23T03:19:22;6.15;;;2.38;;
33006;SDS011;19361;51.598;7.650;2024-03-23T03:24:23;12.18;;;3.35;;
33006;SDS011;19361;51.598;7.650;2024-03-23T03:29:23;8.27;;;2.42;;
33006;SDS011;19361;51.598;7.650;2024-03-23T03:34:24;7.25;;;1.90;;
33006;SDS011;19361;51.598;7.650;2024-03-23T03:39:25;13.43;;;2.63;;
33006;SDS011;19361;51.598;7.650;2024-03-23T03:44:26;6.90;;;2.28;;
33006;SDS011;19361;51.598;7.650;2024-03-23T03:49:26;9.02;;;2.65;;
33006;SDS011;19361;51.598;7.650;2024-03-23T03:54:27;8.88;;;2.20;;
33006;SDS011;19361;51.598;7.650;2024-03-23T03:59:28;10.35;;;2.95;;
33006;SDS011;19361;51.598;7.650;2024-03-23T04:04:29;12.13;;;2.92;;
33006;SDS011;19361;51.598;7.650;2024-03-23T04:09:30;6.30;;;2.88;;
33006;SDS011;19361;51.598;7.650;2024-03-23T04:14:31;13.13;;;3.28;;
33006;SDS011;19361;51.598;7.650;2024-03-23T04:19:31;9.23;;;2.35;;
33006;SDS011;19361;51.598;7.650;2024-03-23T04:24:32;8.70;;;2.88;;
33006;SDS011;19361;51.598;7.650;2024-03-23T04:29:33;10.88;;;2.60;;
33006;SDS011;19361;51.598;7.650;2024-03-23T04:34:33;9.10;;;2.42;;
33006;SDS011;19361;51.598;7.650;2024-03-23T04:39:35;11.68;;;2.65;;
33006;SDS011;19361;51.598;7.650;2024-03-23T04:44:36;9.43;;;2.42;;
33006;SDS011;19361;51.598;7.650;2024-03-23T04:49:37;6.47;;;2.28;;
33006;SDS011;19361;51.598;7.650;2024-03-23T04:54:38;11.32;;;2.55;;
33006;SDS011;19361;51.598;7.650;2024-03-23T04:59:40;10.90;;;2.55;;
33006;SDS011;19361;51.598;7.650;2024-03-23T05:04:41;9.10;;;2.70;;
33006;SDS011;19361;51.598;7.650;2024-03-23T05:09:42;6.90;;;2.30;;
33006;SDS011;19361;51.598;7.650;2024-03-23T05:14:42;13.90;;;3.20;;
33006;SDS011;19361;51.598;7.650;2024-03-23T05:19:43;12.30;;;3.25;;
33006;SDS011;19361;51.598;7.650;2024-03-23T05:24:47;14.27;;;2.83;;
33006;SDS011;19361;51.598;7.650;2024-03-23T05:29:48;7.30;;;2.50;;
33006;SDS011;19361;51.598;7.650;2024-03-23T05:34:49;14.02;;;3.67;;
33006;SDS011;19361;51.598;7.650;2024-03-23T05:39:55;12.73;;;3.33;;
33006;SDS011;19361;51.598;7.650;2024-03-23T05:44:56;13.25;;;3.42;;
33006;SDS011;19361;51.598;7.650;2024-03-23T05:49:56;18.60;;;3.80;;
33006;SDS011;19361;51.598;7.650;2024-03-23T05:54:57;13.52;;;3.30;;
33006;SDS011;19361;51.598;7.650;2024-03-23T05:59:58;9.90;;;3.20;;
33006;SDS011;19361;51.598;7.650;2024-03-23T06:04:59;14.25;;;3.83;;
33006;SDS011;19361;51.598;7.650;2024-03-23T06:09:59;14.07;;;4.65;;
33006;SDS011;19361;51.598;7.650;2024-03-23T06:15:00;17.58;;;5.55;;
33006;SDS011;19361;51.598;7.650;2024-03-23T06:20:01;12.07;;;5.82;;
33006;SDS011;19361;51.598;7.650;2024-03-23T06:25:01;18.13;;;6.35;;
33006;SDS011;19361;51.598;7.650;2024-03-23T06:30:02;21.88;;;8.13;;
33006;SDS011;19361;51.598;7.650;2024-03-23T06:35:04;17.80;;;9.38;;
33006;SDS011;19361;51.598;7.650;2024-03-23T06:40:08;18.15;;;8.23;;
33006;SDS011;19361;51.598;7.650;2024-03-23T06:45:09;13.75;;;8.75;;
33006;SDS011;19361;51.598;7.650;2024-03-23T06:50:10;19.52;;;8.70;;
33006;SDS011;19361;51.598;7.650;2024-03-23T06:55:11;21.85;;;10.27;;
33006;SDS011;19361;51.598;7.650;2024-03-23T07:00:12;20.58;;;10.65;;
33006;SDS011;19361;51.598;7.650;2024-03-23T07:05:15;17.17;;;10.73;;
33006;SDS011;19361;51.598;7.650;2024-03-23T07:10:16;24.10;;;13.38;;
33006;SDS011;19361;51.598;7.650;2024-03-23T07:15:17;19.33;;;13.35;;
33006;SDS011;19361;51.598;7.650;2024-03-23T07:20:18;27.10;;;14.60;;
33006;SDS011;19361;51.598;7.650;2024-03-23T07:25:20;22.02;;;13.57;;
33006;SDS011;19361;51.598;7.650;2024-03-23T07:30:21;32.75;;;14.27;;
33006;SDS011;19361;51.598;7.650;2024-03-23T07:35:22;27.98;;;13.90;;
33006;SDS011;19361;51.598;7.650;2024-03-23T07:40:22;32.72;;;14.80;;
33006;SDS011;19361;51.598;7.650;2024-03-23T07:45:23;27.63;;;13.48;;
33006;SDS011;19361;51.598;7.650;2024-03-23T07:50:24;26.05;;;14.10;;
33006;SDS011;19361;51.598;7.650;2024-03-23T07:55:24;24.48;;;14.05;;
33006;SDS011;19361;51.598;7.650;2024-03-23T08:00:25;29.58;;;13.95;;
33006;SDS011;19361;51.598;7.650;2024-03-23T08:05:26;23.08;;;13.75;;
33006;SDS011;19361;51.598;7.650;2024-03-23T08:10:26;21.60;;;12.68;;
33006;SDS011;19361;51.598;7.650;2024-03-23T08:15:29;26.40;;;12.57;;
33006;SDS011;19361;51.598;7.650;2024-03-23T08:20:33;22.70;;;10.30;;
33006;SDS011;19361;51.598;7.650;2024-03-23T08:25:34;24.67;;;9.88;;
33006;SDS011;19361;51.598;7.650;2024-03-23T08:30:35;21.27;;;9.15;;
33006;SDS011;19361;51.598;7.650;2024-03-23T08:35:36;24.85;;;8.70;;
33006;SDS011;19361;51.598;7.650;2024-03-23T08:40:36;17.73;;;8.00;;
33006;SDS011;19361;51.598;7.650;2024-03-23T08:45:37;22.50;;;7.53;;
33006;SDS011;19361;51.598;7.650;2024-03-23T08:50:38;16.77;;;5.72;;
33006;SDS011;19361;51.598;7.650;2024-03-23T08:55:38;20.63;;;5.90;;
33006;SDS011;19361;51.598;7.650;2024-03-23T09:00:39;16.88;;;4.88;;
33006;SDS011;19361;51.598;7.650;2024-03-23T09:05:40;19.52;;;5.38;;
33006;SDS011;19361;51.598;7.650;2024-03-23T09:10:41;14.25;;;4.65;;
33006;SDS011;19361;51.598;7.650;2024-03-23T09:15:49;18.42;;;5.85;;
33006;SDS011;19361;51.598;7.650;2024-03-23T09:20:51;12.63;;;5.00;;
33006;SDS011;19361;51.598;7.650;2024-03-23T09:25:54;13.35;;;4.22;;
33006;SDS011;19361;51.598;7.650;2024-03-23T09:30:54;18.63;;;5.53;;
33006;SDS011;19361;51.598;7.650;2024-03-23T09:35:55;14.18;;;4.72;;
33006;SDS011;19361;51.598;7.650;2024-03-23T09:40:59;19.08;;;5.00;;
33006;SDS011;19361;51.598;7.650;2024-03-23T09:46:00;21.98;;;4.60;;
33006;SDS011;19361;51.598;7.650;2024-03-23T09:51:02;11.15;;;3.70;;
33006;SDS011;19361;51.598;7.650;2024-03-23T09:56:03;12.38;;;3.70;;
33006;SDS011;19361;51.598;7.650;2024-03-23T10:01:04;19.05;;;4.65;;
33006;SDS011;19361;51.598;7.650;2024-03-23T10:06:05;11.85;;;3.95;;
33006;SDS011;19361;51.598;7.650;2024-03-23T10:11:15;10.05;;;4.28;;
33006;SDS011;19361;51.598;7.650;2024-03-23T10:16:20;12.77;;;4.57;;
33006;SDS011;19361;51.598;7.650;2024-03-23T10:21:24;12.00;;;3.80;;
33006;SDS011;19361;51.598;7.650;2024-03-23T10:26:24;10.95;;;4.03;;
33006;SDS011;19361;51.598;7.650;2024-03-23T10:31:26;12.20;;;3.15;;
33006;SDS011;19361;51.598;7.650;2024-03-23T10:36:32;12.18;;;3.42;;
33006;SDS011;19361;51.598;7.650;2024-03-23T10:41:37;9.40;;;2.70;;
33006;SDS011;19361;51.598;7.650;2024-03-23T10:46:39;7.28;;;2.47;;
33006;SDS011;19361;51.598;7.650;2024-03-23T10:51:40;7.70;;;2.55;;
33006;SDS011;19361;51.598;7.650;2024-03-23T10:56:41;9.73;;;2.58;;
33006;SDS011;19361;51.598;7.650;2024-03-23T11:01:57;10.55;;;3.10;;
33006;SDS011;19361;51.598;7.650;2024-03-23T11:07:00;8.67;;;2.83;;
33006;SDS011;19361;51.598;7.650;2024-03-23T11:17:21;8.63;;;2.40;;
33006;SDS011;19361;51.598;7.650;2024-03-23T11:27:47;5.97;;;2.10;;
33006;SDS011;19361;51.598;7.650;2024-03-23T11:32:54;8.48;;;2.45;;
33006;SDS011;19361;51.598;7.650;2024-03-23T11:38:03;6.40;;;2.40;;
33006;SDS011;19361;51.598;7.650;2024-03-23T11:43:08;2.70;;;1.30;;
33006;SDS011;19361;51.598;7.650;2024-03-23T11:48:13;3.03;;;1.30;;
33006;SDS011;19361;51.598;7.650;2024-03-23T11:53:20;6.88;;;1.40;;
33006;SDS011;19361;51.598;7.650;2024-03-23T11:58:23;2.90;;;1.50;;
33006;SDS011;19361;51.598;7.650;2024-03-23T12:03:27;3.60;;;1.33;;
33006;SDS011;19361;51.598;7.650;2024-03-23T12:08:32;3.78;;;1.50;;
33006;SDS011;19361;51.598;7.650;2024-03-23T12:13:34;2.45;;;1.40;;
33006;SDS011;19361;51.598;7.650;2024-03-23T12:18:35;6.97;;;2.10;;
33006;SDS011;19361;51.598;7.650;2024-03-23T12:23:44;5.75;;;1.77;;
33006;SDS011;19361;51.598;7.650;2024-03-23T12:28:46;5.63;;;2.00;;
33006;SDS011;19361;51.598;7.650;2024-03-23T12:33:47;5.78;;;1.73;;
33006;SDS011;19361;51.598;7.650;2024-03-23T12:38:48;6.45;;;1.90;;
33006;SDS011;19361;51.598;7.650;2024-03-23T12:43:48;11.13;;;2.47;;
33006;SDS011;19361;51.598;7.650;2024-03-23T12:48:49;9.57;;;2.28;;
33006;SDS011;19361;51.598;7.650;2024-03-23T12:53:50;5.47;;;2.22;;
33006;SDS011;19361;51.598;7.650;2024-03-23T12:58:50;9.23;;;3.05;;
33006;SDS011;19361;51.598;7.650;2024-03-23T13:03:52;8.48;;;2.60;;
33006;SDS011;19361;51.598;7.650;2024-03-23T13:08:53;6.57;;;2.25;;
33006;SDS011;19361;51.598;7.650;2024-03-23T13:13:54;5.85;;;2.40;;
33006;SDS011;19361;51.598;7.650;2024-03-23T13:18:55;5.90;;;2.72;;
33006;SDS011;19361;51.598;7.650;2024-03-23T13:23:56;5.35;;;1.80;;
33006;SDS011;19361;51.598;7.650;2024-03-23T13:28:57;7.25;;;1.88;;
33006;SDS011;19361;51.598;7.650;2024-03-23T13:33:57;4.88;;;1.83;;
33006;SDS011;19361;51.598;7.650;2024-03-23T13:38:58;5.93;;;2.00;;
33006;SDS011;19361;51.598;7.650;2024-03-23T13:43:59;3.67;;;1.90;;
33006;SDS011;19361;51.598;7.650;2024-03-23T13:49:00;6.20;;;2.00;;
33006;SDS011;19361;51.598;7.650;2024-03-23T13:54:01;4.30;;;2.08;;
33006;SDS011;19361;51.598;7.650;2024-03-23T13:59:01;3.42;;;1.33;;
33006;SDS011;19361;51.598;7.650;2024-03-23T14:04:03;3.97;;;1.40;;
33006;SDS011;19361;51.598;7.650;2024-03-23T14:09:04;3.22;;;1.70;;
33006;SDS011;19361;51.598;7.650;2024-03-23T14:14:05;1.70;;;1.35;;
33006;SDS011;19361;51.598;7.650;2024-03-23T14:19:05;3.42;;;1.70;;
33006;SDS011;19361;51.598;7.650;2024-03-23T14:24:06;4.72;;;1.77;;
33006;SDS011;19361;51.598;7.650;2024-03-23T14:29:09;5.72;;;1.42;;
33006;SDS011;19361;51.598;7.650;2024-03-23T14:34:09;3.70;;;1.33;;
33006;SDS011;19361;51.598;7.650;2024-03-23T14:39:10;4.50;;;1.35;;
33006;SDS011;19361;51.598;7.650;2024-03-23T14:44:12;2.92;;;1.80;;
33006;SDS011;19361;51.598;7.650;2024-03-23T14:49:14;3.70;;;1.70;;
33006;SDS011;19361;51.598;7.650;2024-03-23T14:54:18;3.95;;;1.90;;
33006;SDS011;19361;51.598;7.650;2024-03-23T14:59:19;5.15;;;1.90;;
33006;SDS011;19361;51.598;7.650;2024-03-23T15:04:20;9.30;;;1.80;;
33006;SDS011;19361;51.598;7.650;2024-03-23T15:09:21;9.15;;;2.00;;
33006;SDS011;19361;51.598;7.650;2024-03-23T15:14:23;7.13;;;2.60;;
33006;SDS011;19361;51.598;7.650;2024-03-23T15:19:24;7.15;;;2.20;;
33006;SDS011;19361;51.598;7.650;2024-03-23T15:24:24;7.15;;;2.05;;
33006;SDS011;19361;51.598;7.650;2024-03-23T15:29:25;6.47;;;2.20;;
33006;SDS011;19361;51.598;7.650;2024-03-23T15:34:26;5.78;;;2.00;;
33006;SDS011;19361;51.598;7.650;2024-03-23T15:39:27;6.65;;;2.00;;
33006;SDS011;19361;51.598;7.650;2024-03-23T15:44:28;4.97;;;2.17;;
33006;SDS011;19361;51.598;7.650;2024-03-23T15:49:29;5.45;;;2.42;;
33006;SDS011;19361;51.598;7.650;2024-03-23T15:54:31;5.35;;;1.70;;
33006;SDS011;19361;51.598;7.650;2024-03-23T15:59:31;4.20;;;2.15;;
33006;SDS011;19361;51.598;7.650;2024-03-23T16:04:32;3.63;;;1.63;;
33006;SDS011;19361;51.598;7.650;2024-03-23T16:09:33;5.05;;;1.70;;
33006;SDS011;19361;51.598;7.650;2024-03-23T16:14:33;7.13;;;1.80;;
33006;SDS011;19361;51.598;7.650;2024-03-23T16:19:34;4.70;;;1.52;;
33006;SDS011;19361;51.598;7.650;2024-03-23T16:24:35;3.75;;;1.40;;
33006;SDS011;19361;51.598;7.650;2024-03-23T16:29:35;5.15;;;1.50;;
33006;SDS011;19361;51.598;7.650;2024-03-23T16:34:36;4.05;;;1.60;;
33006;SDS011;19361;51.598;7.650;2024-03-23T16:39:37;3.92;;;1.75;;
33006;SDS011;19361;51.598;7.650;2024-03-23T16:44:37;4.60;;;1.88;;
33006;SDS011;19361;51.598;7.650;2024-03-23T16:49:39;5.93;;;2.85;;
33006;SDS011;19361;51.598;7.650;2024-03-23T16:54:40;5.05;;;1.63;;
33006;SDS011;19361;51.598;7.650;2024-03-23T16:59:40;4.82;;;2.10;;
33006;SDS011;19361;51.598;7.650;2024-03-23T17:04:41;6.47;;;1.92;;
33006;SDS011;19361;51.598;7.650;2024-03-23T17:09:46;6.60;;;1.90;;
33006;SDS011;19361;51.598;7.650;2024-03-23T17:14:47;7.88;;;1.70;;
33006;SDS011;19361;51.598;7.650;2024-03-23T17:19:48;5.70;;;1.83;;
33006;SDS011;19361;51.598;7.650;2024-03-23T17:24:51;7.35;;;2.70;;
33006;SDS011;19361;51.598;7.650;2024-03-23T17:29:52;9.00;;;1.83;;
33006;SDS011;19361;51.598;7.650;2024-03-23T17:34:53;7.80;;;2.05;;
33006;SDS011;19361;51.598;7.650;2024-03-23T17:39:54;3.03;;;1.92;;
33006;SDS011;19361;51.598;7.650;2024-03-23T17:44:55;6.65;;;2.65;;
33006;SDS011;19361;51.598;7.650;2024-03-23T17:49:56;4.78;;;2.00;;
33006;SDS011;19361;51.598;7.650;2024-03-23T17:54:56;4.15;;;1.10;;
33006;SDS011;19361;51.598;7.650;2024-03-23T17:59:57;2.75;;;1.00;;
33006;SDS011;19361;51.598;7.650;2024-03-23T18:04:58;2.65;;;1.10;;
33006;SDS011;19361;51.598;7.650;2024-03-23T18:09:59;4.05;;;1.85;;
33006;SDS011;19361;51.598;7.650;2024-03-23T18:15:00;2.53;;;1.58;;
33006;SDS011;19361;51.598;7.650;2024-03-23T18:20:04;3.22;;;1.45;;
33006;SDS011;19361;51.598;7.650;2024-03-23T18:25:06;6.85;;;1.90;;
33006;SDS011;19361;51.598;7.650;2024-03-23T18:30:06;2.45;;;2.15;;
33006;SDS011;19361;51.598;7.650;2024-03-23T18:35:07;5.05;;;2.22;;
33006;SDS011;19361;51.598;7.650;2024-03-23T18:40:08;10.82;;;5.93;;
33006;SDS011;19361;51.598;7.650;2024-03-23T18:45:10;7.13;;;3.67;;
33006;SDS011;19361;51.598;7.650;2024-03-23T18:50:10;4.05;;;2.30;;
33006;SDS011;19361;51.598;7.650;2024-03-23T18:55:11;8.00;;;3.38;;
33006;SDS011;19361;51.598;7.650;2024-03-23T19:00:12;4.05;;;2.58;;
33006;SDS011;19361;51.598;7.650;2024-03-23T19:05:13;6.57;;;3.25;;
33006;SDS011;19361;51.598;7.650;2024-03-23T19:10:14;6.03;;;4.28;;
33006;SDS011;19361;51.598;7.650;2024-03-23T19:15:15;6.03;;;3.72;;
33006;SDS011;19361;51.598;7.650;2024-03-23T19:20:15;6.65;;;3.47;;
33006;SDS011;19361;51.598;7.650;2024-03-23T19:25:16;5.13;;;3.28;;
33006;SDS011;19361;51.598;7.650;2024-03-23T19:30:17;7.28;;;4.00;;
33006;SDS011;19361;51.598;7.650;2024-03-23T19:35:17;6.97;;;3.25;;
33006;SDS011;19361;51.598;7.650;2024-03-23T19:40:18;7.45;;;4.50;;
33006;SDS011;19361;51.598;7.650;2024-03-23T19:45:19;7.75;;;3.35;;
33006;SDS011;19361;51.598;7.650;2024-03-23T19:50:20;8.88;;;2.97;;
33006;SDS011;19361;51.598;7.650;2024-03-23T19:55:20;12.48;;;5.53;;
33006;SDS011;19361;51.598;7.650;2024-03-23T20:00:21;5.63;;;3.30;;
33006;SDS011;19361;51.598;7.650;2024-03-23T20:05:22;5.15;;;2.97;;
33006;SDS011;19361;51.598;7.650;2024-03-23T20:10:23;5.32;;;2.63;;
33006;SDS011;19361;51.598;7.650;2024-03-23T20:15:23;5.95;;;3.20;;
33006;SDS011;19361;51.598;7.650;2024-03-23T20:20:24;7.75;;;2.60;;
33006;SDS011;19361;51.598;7.650;2024-03-23T20:25:25;4.93;;;2.00;;
33006;SDS011;19361;51.598;7.650;2024-03-23T20:30:25;4.30;;;2.60;;
33006;SDS011;19361;51.598;7.650;2024-03-23T20:35:26;2.92;;;1.92;;
33006;SDS011;19361;51.598;7.650;2024-03-23T20:40:28;6.20;;;2.97;;
33006;SDS011;19361;51.598;7.650;2024-03-23T20:45:29;5.82;;;2.17;;
33006;SDS011;19361;51.598;7.650;2024-03-23T20:50:30;5.55;;;2.20;;
33006;SDS011;19361;51.598;7.650;2024-03-23T20:55:31;4.03;;;1.63;;
33006;SDS011;19361;51.598;7.650;2024-03-23T21:00:32;4.18;;;2.22;;
33006;SDS011;19361;51.598;7.650;2024-03-23T21:05:32;4.45;;;2.17;;
33006;SDS011;19361;51.598;7.650;2024-03-23T21:10:33;4.15;;;2.20;;
33006;SDS011;19361;51.598;7.650;2024-03-23T21:15:34;6.32;;;2.55;;
33006;SDS011;19361;51.598;7.650;2024-03-23T21:20:35;5.07;;;2.75;;
33006;SDS011;19361;51.598;7.650;2024-03-23T21:25:35;4.03;;;2.13;;
33006;SDS011;19361;51.598;7.650;2024-03-23T21:30:36;3.40;;;2.50;;
33006;SDS011;19361;51.598;7.650;2024-03-23T21:35:36;4.10;;;2.78;;
33006;SDS011;19361;51.598;7.650;2024-03-23T21:40:37;3.83;;;2.38;;
33006;SDS011;19361;51.598;7.650;2024-03-23T21:45:38;4.20;;;3.67;;
33006;SDS011;19361;51.598;7.650;2024-03-23T21:50:38;5.55;;;4.90;;
33006;SDS011;19361;51.598;7.650;2024-03-23T21:55:47;9.55;;;7.50;;
33006;SDS011;19361;51.598;7.650;2024-03-23T22:00:51;10.02;;;8.60;;
33006;SDS011;19361;51.598;7.650;2024-03-23T22:05:54;12.00;;;9.35;;
33006;SDS011;19361;51.598;7.650;2024-03-23T22:10:57;10.93;;;9.73;;
33006;SDS011;19361;51.598;7.650;2024-03-23T22:16:01;13.85;;;10.65;;
33006;SDS011;19361;51.598;7.650;2024-03-23T22:21:03;12.48;;;9.30;;
33006;SDS011;19361;51.598;7.650;2024-03-23T22:26:04;11.13;;;9.75;;
33006;SDS011;19361;51.598;7.650;2024-03-23T22:31:05;12.40;;;9.63;;
33006;SDS011;19361;51.598;7.650;2024-03-23T22:36:06;11.43;;;9.38;;
33006;SDS011;19361;51.598;7.650;2024-03-23T22:41:08;11.38;;;10.18;;
33006;SDS011;19361;51.598;7.650;2024-03-23T22:46:09;10.52;;;8.50;;
33006;SDS011;19361;51.598;7.650;2024-03-23T22:51:11;12.70;;;8.90;;
33006;SDS011;19361;51.598;7.650;2024-03-23T22:56:12;11.60;;;8.60;;
33006;SDS011;19361;51.598;7.650;2024-03-23T23:01:13;11.57;;;8.85;;
33006;SDS011;19361;51.598;7.650;2024-03-23T23:06:14;12.57;;;9.85;;
33006;SDS011;19361;51.598;7.650;2024-03-23T23:11:14;12.20;;;7.93;;
33006;SDS011;19361;51.598;7.650;2024-03-23T23:16:15;10.40;;;7.90;;
33006;SDS011;19361;51.598;7.650;2024-03-23T23:21:16;10.70;;;7.32;;
33006;SDS011;19361;51.598;7.650;2024-03-23T23:26:18;8.27;;;7.30;;
33006;SDS011;19361;51.598;7.650;2024-03-23T23:31:19;9.93;;;7.40;;
33006;SDS011;19361;51.598;7.650;2024-03-23T23:36:20;9.23;;;7.22;;
33006;SDS011;19361;51.598;7.650;2024-03-23T23:41:21;9.32;;;7.05;;
33006;SDS011;19361;51.598;7.650;2024-03-23T23:46:22;9.93;;;6.68;;
33006;SDS011;19361;51.598;7.650;2024-03-23T23:51:23;13.30;;;7.18;;
33006;SDS011;19361;51.598;7.650;2024-03-23T23:56:24;5.95;;;5.32;;
